createdAt,value
2019-05-19T00:02:19.851Z,94252.91
2019-05-19T00:07:21.980Z,94255.86
2019-05-19T00:12:24.149Z,94253.43
2019-05-19T00:17:26.006Z,94254.23
2019-05-19T00:22:28.138Z,94257.59
2019-05-19T00:27:30.334Z,94246.06
2019-05-19T00:32:32.415Z,94252.59
2019-05-19T00:37:34.510Z,94260.75
2019-05-19T00:42:36.486Z,94260.09
2019-05-19T00:47:38.501Z,94256.53
2019-05-19T00:52:40.586Z,94252.28
2019-05-19T00:57:43.076Z,94252.97
2019-05-19T01:02:45.275Z,94246.37
2019-05-19T01:07:47.253Z,94249.50
2019-05-19T01:12:49.293Z,94255.21
2019-05-19T01:17:51.519Z,94262.66
2019-05-19T01:22:53.658Z,94261.34
2019-05-19T01:27:56.832Z,94250.64
2019-05-19T01:32:58.814Z,94256.30
2019-05-19T01:38:00.998Z,94257.62
2019-05-19T01:43:03.696Z,94246.58
2019-05-19T01:48:05.822Z,94246.23
2019-05-19T01:53:07.985Z,94250.06
2019-05-19T01:58:10.212Z,94248.87
2019-05-19T02:03:12.383Z,94254.68
2019-05-19T02:08:14.399Z,94249.92
2019-05-19T02:13:16.374Z,94239.90
2019-05-19T02:18:18.482Z,94244.28
2019-05-19T02:23:20.576Z,94252.61
2019-05-19T02:28:22.797Z,94253.63
2019-05-19T02:33:25.127Z,94270.64
2019-05-19T02:38:27.140Z,94260.48
2019-05-19T02:43:29.355Z,94258.16
2019-05-19T02:48:32.230Z,94256.50
2019-05-19T02:53:34.463Z,94261.70
2019-05-19T02:58:37.389Z,94250.94
2019-05-19T03:03:39.409Z,94258.59
2019-05-19T03:08:41.451Z,94264.63
2019-05-19T03:13:43.529Z,94266.31
2019-05-19T03:18:45.611Z,94270.13
2019-05-19T03:23:47.696Z,94277.89
2019-05-19T03:28:49.683Z,94282.48
2019-05-19T03:33:56.322Z,94284.72
2019-05-19T03:38:58.398Z,94287.98
2019-05-19T03:44:01.182Z,94291.19
2019-05-19T03:49:03.170Z,94294.34
2019-05-19T03:54:05.273Z,94289.91
2019-05-19T03:59:07.306Z,94283.63
2019-05-19T04:04:09.350Z,94294.15
2019-05-19T04:09:11.498Z,94292.20
2019-05-19T04:14:13.507Z,94296.95
2019-05-19T04:19:15.721Z,94298.69
2019-05-19T04:24:17.599Z,94301.66
2019-05-19T04:29:19.699Z,94300.25
2019-05-19T04:34:21.666Z,94304.48
2019-05-19T04:39:23.814Z,94300.03
2019-05-19T04:44:25.923Z,94296.02
2019-05-19T04:49:28.037Z,94293.22
2019-05-19T04:54:30.166Z,94295.56
2019-05-19T04:59:32.193Z,94292.59
2019-05-19T05:04:34.075Z,94292.59
2019-05-19T05:09:36.134Z,94295.38
2019-05-19T05:14:38.285Z,94291.55
2019-05-19T05:19:40.462Z,94290.60
2019-05-19T05:24:42.543Z,94296.05
2019-05-19T05:29:44.924Z,94290.92
2019-05-19T05:34:47.031Z,94281.85
2019-05-19T05:39:49.144Z,94291.02
2019-05-19T05:44:51.408Z,94286.89
2019-05-19T05:49:53.721Z,94275.46
2019-05-19T05:54:55.833Z,94274.69
2019-05-19T05:59:57.839Z,94271.00
2019-05-19T06:04:59.951Z,94269.39
2019-05-19T06:10:02.199Z,94261.40
2019-05-19T06:15:05.487Z,94269.81
2019-05-19T06:20:09.205Z,94269.69
2019-05-19T06:25:15.747Z,94270.49
2019-05-19T06:30:18.321Z,94261.23
2019-05-19T06:35:20.528Z,94264.20
2019-05-19T06:40:22.918Z,94269.25
2019-05-19T06:45:25.029Z,94264.81
2019-05-19T06:50:27.433Z,94267.98
2019-05-19T06:55:29.559Z,94273.50
2019-05-19T07:00:31.666Z,94259.84
2019-05-19T07:05:33.770Z,94255.16
2019-05-19T07:10:36.130Z,94244.58
2019-05-19T07:15:37.990Z,94244.98
2019-05-19T07:20:40.154Z,94236.93
2019-05-19T07:25:42.517Z,94235.55
2019-05-19T07:30:44.679Z,94231.56
2019-05-19T07:35:47.054Z,94232.64
2019-05-19T07:40:49.330Z,94226.38
2019-05-19T07:45:51.444Z,94223.25
2019-05-19T07:50:53.628Z,94215.16
2019-05-19T07:55:55.867Z,94206.30
2019-05-19T08:00:57.667Z,94211.69
2019-05-19T08:05:59.680Z,94203.61
2019-05-19T08:11:01.750Z,94189.55
2019-05-19T08:16:03.966Z,94178.44
2019-05-19T08:21:05.845Z,94182.69
2019-05-19T08:26:08.083Z,94182.33
2019-05-19T08:31:10.048Z,94179.36
2019-05-19T08:36:12.207Z,94173.69
2019-05-19T08:41:15.521Z,94177.09
2019-05-19T08:46:17.557Z,94177.38
2019-05-19T08:51:21.088Z,94180.61
2019-05-19T08:56:23.564Z,94167.75
2019-05-19T09:01:26.160Z,94168.86
2019-05-19T09:06:30.361Z,94159.17
2019-05-19T09:11:32.755Z,94165.34
2019-05-19T09:16:35.110Z,94161.30
2019-05-19T09:21:37.550Z,94156.18
2019-05-19T09:26:40.567Z,94160.77
2019-05-19T09:31:44.316Z,94145.13
2019-05-19T09:36:46.853Z,94136.37
2019-05-19T09:41:49.470Z,94127.92
2019-05-19T09:46:52.119Z,94118.41
2019-05-19T09:51:54.747Z,94122.79
2019-05-19T09:56:57.336Z,94115.79
2019-05-19T10:01:59.980Z,94111.77
2019-05-19T10:07:03.303Z,94107.20
2019-05-19T10:12:07.454Z,94106.33
2019-05-19T10:17:10.195Z,94104.38
2019-05-19T10:22:14.712Z,94096.97
2019-05-19T10:27:17.224Z,94090.03
2019-05-19T10:32:19.766Z,94086.03
2019-05-19T10:37:22.295Z,94077.65
2019-05-19T10:42:24.811Z,94076.50
2019-05-19T10:47:28.959Z,94066.58
2019-05-19T10:52:31.150Z,94062.52
2019-05-19T10:57:33.152Z,94058.33
2019-05-19T11:02:35.263Z,94049.36
2019-05-19T11:07:37.254Z,94046.16
2019-05-19T11:12:39.422Z,94037.81
2019-05-19T11:17:41.305Z,94029.19
2019-05-19T11:22:43.463Z,94023.99
2019-05-19T11:27:45.645Z,94034.50
2019-05-19T11:32:47.363Z,94030.25
2019-05-19T11:37:49.330Z,94028.03
2019-05-19T11:42:51.356Z,94031.40
2019-05-19T11:47:53.264Z,94018.80
2019-05-19T11:52:55.439Z,94038.73
2019-05-19T11:57:57.947Z,94029.62
2019-05-19T12:03:00.401Z,94016.06
2019-05-19T12:08:02.537Z,94010.84
2019-05-19T12:13:05.955Z,94007.91
2019-05-19T12:18:08.150Z,94009.19
2019-05-19T12:23:10.685Z,94008.13
2019-05-19T12:28:12.888Z,94001.81
2019-05-19T12:33:16.167Z,93997.75
2019-05-19T12:38:18.122Z,93989.32
2019-05-19T12:43:20.399Z,93988.35
2019-05-19T12:48:22.565Z,93985.60
2019-05-19T12:53:24.469Z,93982.11
2019-05-19T12:58:26.717Z,93985.01
2019-05-19T13:03:28.921Z,93983.18
2019-05-19T13:08:31.120Z,93982.34
2019-05-19T13:13:33.131Z,93975.00
2019-05-19T13:18:36.902Z,93975.88
2019-05-19T13:23:39.248Z,93972.08
2019-05-19T13:28:41.627Z,93973.09
2019-05-19T13:33:43.802Z,93973.64
2019-05-19T13:38:46.121Z,93974.67
2019-05-19T13:43:49.362Z,93969.89
2019-05-19T13:48:51.206Z,93964.81
2019-05-19T13:53:53.222Z,93969.25
2019-05-19T13:58:56.475Z,93965.37
2019-05-19T14:03:58.592Z,93969.66
2019-05-19T14:09:00.892Z,93974.40
2019-05-19T14:14:05.007Z,93968.52
2019-05-19T14:19:07.137Z,93977.41
2019-05-19T14:24:09.673Z,93971.20
2019-05-19T14:29:11.884Z,93967.44
2019-05-19T14:34:14.487Z,93958.01
2019-05-19T14:39:17.030Z,93949.16
2019-05-19T14:44:19.093Z,93946.46
2019-05-19T14:49:21.200Z,93942.94
2019-05-19T14:54:23.260Z,93942.41
2019-05-19T14:59:27.074Z,93939.18
2019-05-19T15:04:29.227Z,93928.67
2019-05-19T15:09:31.475Z,93926.25
2019-05-19T15:14:33.568Z,93934.61
2019-05-19T15:19:35.842Z,93933.52
2019-05-19T15:24:38.027Z,93929.23
2019-05-19T15:29:40.085Z,93923.85
2019-05-19T15:34:42.364Z,93915.79
2019-05-19T15:39:44.576Z,93904.75
2019-05-19T15:44:46.704Z,93902.34
2019-05-19T15:49:48.950Z,93888.62
2019-05-19T15:54:51.630Z,93894.27
2019-05-19T15:59:56.022Z,93891.05
2019-05-19T16:04:58.238Z,93884.81
2019-05-19T16:10:00.573Z,93879.67
2019-05-19T16:15:06.299Z,93872.94
2019-05-19T16:20:09.003Z,93867.88
2019-05-19T16:25:12.051Z,93866.55
2019-05-19T16:30:14.505Z,93867.88
2019-05-19T16:35:16.762Z,93853.62
2019-05-19T16:40:19.094Z,93856.08
2019-05-19T16:45:21.325Z,93849.06
2019-05-19T16:50:25.245Z,93844.22
2019-05-19T16:55:29.310Z,93856.56
2019-05-19T17:00:31.737Z,93848.23
2019-05-19T17:05:34.719Z,93849.31
2019-05-19T17:10:38.299Z,93843.95
2019-05-19T17:15:40.645Z,93846.06
2019-05-19T17:20:42.764Z,93844.44
2019-05-19T17:25:46.435Z,93846.85
2019-05-19T17:30:48.892Z,93848.17
2019-05-19T17:35:50.846Z,93840.16
2019-05-19T17:40:53.278Z,93837.67
2019-05-19T17:45:55.935Z,93843.81
2019-05-19T17:50:58.508Z,93832.73
2019-05-19T17:56:02.505Z,93837.28
2019-05-19T18:01:04.861Z,93831.03
2019-05-19T18:06:07.172Z,93828.83
2019-05-19T18:11:09.495Z,93817.58
2019-05-19T18:16:13.417Z,93822.66
2019-05-19T18:21:17.610Z,93823.67
2019-05-19T18:26:19.954Z,93823.66
2019-05-19T18:31:22.412Z,93824.09
2019-05-19T18:36:24.876Z,93815.20
2019-05-19T18:41:27.380Z,93814.11
2019-05-19T18:46:29.422Z,93822.44
2019-05-19T18:51:31.530Z,93816.66
2019-05-19T18:56:33.828Z,93823.58
2019-05-19T19:01:36.247Z,93832.83
2019-05-19T19:06:38.640Z,93839.34
2019-05-19T19:11:40.832Z,93839.34
2019-05-19T19:16:43.030Z,93842.27
2019-05-19T19:21:45.499Z,93849.95
2019-05-19T19:26:47.739Z,93850.31
2019-05-19T19:31:50.077Z,93853.50
2019-05-19T19:36:52.483Z,93863.30
2019-05-19T19:41:54.660Z,93869.33
2019-05-19T19:46:56.658Z,93875.45
2019-05-19T19:51:58.774Z,93882.80
2019-05-19T19:57:00.889Z,93884.83
2019-05-19T20:02:03.178Z,93899.90
2019-05-19T20:07:05.539Z,93903.55
2019-05-19T20:12:08.002Z,93908.23
2019-05-19T20:17:12.051Z,93917.03
2019-05-19T20:22:14.270Z,93922.25
2019-05-19T20:27:16.609Z,93942.44
2019-05-19T20:32:18.925Z,93940.56
2019-05-19T20:37:21.137Z,93947.92
2019-05-19T20:42:23.391Z,93959.16
2019-05-19T20:47:25.596Z,93966.23
2019-05-19T20:52:28.356Z,93969.40
2019-05-19T20:57:30.795Z,93978.31
2019-05-19T21:02:33.220Z,93978.31
2019-05-19T21:07:35.550Z,93981.55
2019-05-19T21:12:37.687Z,93991.94
2019-05-19T21:17:39.699Z,93990.64
2019-05-19T21:22:41.955Z,93988.13
2019-05-19T21:27:43.927Z,93978.52
2019-05-19T21:32:46.187Z,93969.41
2019-05-19T21:37:48.326Z,93986.29
2019-05-19T21:42:50.257Z,93986.33
2019-05-19T21:47:52.340Z,93990.76
2019-05-19T21:52:54.680Z,93987.41
2019-05-19T21:57:56.709Z,93981.96
2019-05-19T22:02:58.844Z,93973.10
2019-05-19T22:08:02.875Z,93967.75
2019-05-19T22:13:04.942Z,93961.08
2019-05-19T22:18:07.110Z,93975.09
2019-05-19T22:23:09.224Z,93972.56
2019-05-19T22:28:11.537Z,93972.45
2019-05-19T22:33:13.590Z,93965.23
2019-05-19T22:38:15.690Z,93977.46
2019-05-19T22:43:17.819Z,93977.19
2019-05-19T22:48:20.013Z,93981.04
2019-05-19T22:53:21.930Z,93986.89
2019-05-19T22:58:23.979Z,93986.30
2019-05-19T23:03:25.991Z,93982.06
2019-05-19T23:08:28.324Z,93980.59
2019-05-19T23:13:30.355Z,93981.70
2019-05-19T23:18:32.562Z,93986.58
2019-05-19T23:23:34.473Z,93986.78
2019-05-19T23:28:36.374Z,93991.75
2019-05-19T23:33:38.468Z,93983.79
2019-05-19T23:38:40.619Z,93970.20
2019-05-19T23:43:42.871Z,93959.12
2019-05-19T23:48:44.951Z,93968.23
2019-05-19T23:53:47.192Z,93980.56
2019-05-19T23:58:49.253Z,93979.39
